Time;durP1;ratioP1;P1;durP2;ratioP2;P2;SDS_P1;SDS_P2;PMS_P1;PMS_P2;Temp;Humidity;BMP_temperature;BMP_pressure;BME280_temperature;BME280_humidity;BME280_pressure;Samples;Min_cycle;Max_cycle;Signal;HPM_P1;HPM_P2
2023/03/26 00:01:14;;;;;;;20.80;12.10;;;;;;;13.96;82.43;99588.11;107722;1290;21983;-67
2023/03/26 00:03:40;;;;;;;20.20;11.90;;;;;;;13.93;83.02;99585.58;107580;1291;150205;-60
2023/03/26 00:06:12;;;;;;;19.00;11.60;;;;;;;13.94;82.76;99575.66;107923;1290;22000;-60
2023/03/26 00:08:41;;;;;;;19.90;11.90;;;;;;;13.78;85.49;99567.63;107951;1289;21993;-60
2023/03/26 00:11:08;;;;;;;20.40;11.60;;;;;;;13.74;85.80;99569.55;108021;1291;22038;-61
2023/03/26 00:13:34;;;;;;;18.90;11.10;;;;;;;13.89;82.13;99564.40;107873;1289;22141;-60
2023/03/26 00:16:00;;;;;;;23.70;11.50;;;;;;;13.96;81.30;99568.02;107726;1290;21986;-67
2023/03/26 00:18:30;;;;;;;22.70;11.50;;;;;;;13.95;82.42;99569.98;107701;1290;22002;-60
2023/03/26 00:20:57;;;;;;;21.80;12.30;;;;;;;13.87;84.68;99577.34;107830;1286;22034;-61
2023/03/26 00:23:24;;;;;;;22.90;11.80;;;;;;;13.90;83.17;99572.98;107821;1291;21998;-68
2023/03/26 00:25:50;;;;;;;19.50;11.50;;;;;;;13.87;84.00;99568.35;107724;1290;21989;-61
2023/03/26 00:28:22;;;;;;;22.20;11.90;;;;;;;13.81;84.76;99560.48;107765;1291;22008;-67
2023/03/26 00:30:58;;;;;;;22.30;11.70;;;;;;;13.67;87.87;99553.42;107683;1290;21998;-68
2023/03/26 00:33:26;;;;;;;19.10;11.30;;;;;;;13.77;86.84;99547.23;107671;1290;22004;-60
2023/03/26 00:35:53;;;;;;;17.00;10.70;;;;;;;13.81;85.02;99552.88;107727;1286;23763;-68
2023/03/26 00:38:21;;;;;;;19.40;10.90;;;;;;;13.85;84.54;99556.60;107769;1290;21992;-61
2023/03/26 00:40:49;;;;;;;19.60;11.90;;;;;;;13.82;86.49;99556.22;107729;1290;21994;-61
2023/03/26 00:43:20;;;;;;;22.70;13.10;;;;;;;13.85;85.62;99544.80;107843;1290;22724;-61
2023/03/26 00:45:53;;;;;;;19.10;12.10;;;;;;;13.85;85.59;99534.38;107746;1290;21999;-61
2023/03/26 00:48:20;;;;;;;21.30;11.00;;;;;;;13.82;85.73;99536.64;107770;1290;21995;-61
2023/03/26 00:50:47;;;;;;;22.50;11.80;;;;;;;13.85;85.10;99536.16;107863;1290;21995;-61
2023/03/26 00:53:13;;;;;;;17.30;11.20;;;;;;;13.89;84.00;99533.89;107801;1290;22452;-61
2023/03/26 00:55:44;;;;;;;21.60;11.30;;;;;;;13.93;83.19;99535.66;107878;1290;21990;-66
2023/03/26 00:58:12;;;;;;;19.10;11.00;;;;;;;13.99;82.30;99531.92;107874;1290;21990;-66
2023/03/26 01:00:47;;;;;;;19.10;11.40;;;;;;;13.97;83.62;99531.97;107882;1290;22002;-62
2023/03/26 01:03:14;;;;;;;21.90;12.90;;;;;;;14.02;82.88;99529.14;107933;1290;23666;-61
2023/03/26 01:05:43;;;;;;;24.20;12.40;;;;;;;14.04;82.78;99521.84;107910;1290;22465;-65
2023/03/26 01:08:18;;;;;;;23.70;13.10;;;;;;;14.06;82.49;99523.70;107834;1290;21989;-65
2023/03/26 01:10:49;;;;;;;22.50;12.10;;;;;;;14.05;82.95;99525.32;107829;1290;22001;-61
2023/03/26 01:13:20;;;;;;;21.40;12.20;;;;;;;13.96;85.30;99532.91;107815;1290;22006;-61
2023/03/26 01:15:49;;;;;;;23.40;12.50;;;;;;;13.92;86.25;99536.59;107895;1289;22026;-61
2023/03/26 01:18:19;;;;;;;20.40;13.20;;;;;;;13.93;85.00;99539.71;107784;1291;22000;-62
2023/03/26 01:20:48;;;;;;;19.90;11.70;;;;;;;13.94;84.67;99539.85;107820;1290;22178;-63
2023/03/26 01:23:22;;;;;;;18.80;11.80;;;;;;;13.94;84.58;99535.27;107859;1290;21996;-63
2023/03/26 01:25:53;;;;;;;20.00;12.60;;;;;;;13.93;85.21;99533.02;107865;1290;21995;-63
2023/03/26 01:28:19;;;;;;;20.50;12.30;;;;;;;13.96;84.04;99529.20;107766;1290;21990;-62
2023/03/26 01:31:37;;;;;;;19.00;12.30;;;;;;;13.97;84.43;99522.45;107821;1290;21999;-62
2023/03/26 01:34:15;;;;;;;17.50;11.80;;;;;;;13.98;84.40;99516.94;107572;1290;22036;-62
2023/03/26 01:36:47;;;;;;;17.10;10.70;;;;;;;14.02;83.33;99511.69;107827;1290;22094;-63
2023/03/26 01:39:18;;;;;;;18.60;11.70;;;;;;;14.06;83.14;99510.48;107832;1290;22090;-62
2023/03/26 01:41:50;;;;;;;21.90;12.40;;;;;;;14.05;84.16;99511.55;107854;1290;22008;-62
2023/03/26 01:44:19;;;;;;;19.10;12.60;;;;;;;14.03;83.64;99519.39;107869;1277;22029;-61
2023/03/26 01:46:45;;;;;;;19.50;12.20;;;;;;;14.02;84.24;99517.16;107770;1290;21990;-62
2023/03/26 01:49:14;;;;;;;21.50;13.00;;;;;;;13.98;84.80;99518.71;107755;1290;21992;-62
2023/03/26 01:51:41;;;;;;;19.10;12.30;;;;;;;13.97;85.00;99517.52;107850;1290;21992;-63
2023/03/26 01:54:10;;;;;;;20.20;12.30;;;;;;;14.04;83.51;99520.41;107899;1290;22045;-62
2023/03/26 01:56:48;;;;;;;18.90;11.00;;;;;;;14.09;83.70;99521.27;107854;1290;23732;-64
2023/03/26 02:00:10;;;;;;;17.90;10.80;;;;;;;14.10;83.82;99520.00;107864;1290;22083;-61
2023/03/26 02:02:49;;;;;;;18.00;10.70;;;;;;;14.08;84.59;99521.85;107539;1290;21985;-60
2023/03/26 02:05:43;;;;;;;23.20;12.30;;;;;;;14.10;83.42;99516.64;107855;1289;22159;-63
2023/03/26 02:08:23;;;;;;;15.70;10.00;;;;;;;14.12;82.99;99513.77;107070;1290;1002344;-64
2023/03/26 02:10:51;;;;;;;15.30;10.40;;;;;;;14.09;84.04;99515.11;107810;1290;21996;-64
2023/03/26 02:13:19;;;;;;;14.40;9.10;;;;;;;14.10;83.67;99511.72;107890;1290;22752;-64
2023/03/26 02:15:59;;;;;;;16.00;9.80;;;;;;;14.13;82.68;99510.38;107770;1290;22049;-64
2023/03/26 02:18:35;;;;;;;16.20;9.40;;;;;;;14.07;84.83;99508.84;107864;1290;22010;-60
2023/03/26 02:21:04;;;;;;;16.60;9.60;;;;;;;14.12;83.94;99503.70;107861;1289;22024;-60
2023/03/26 02:23:34;;;;;;;17.70;9.30;;;;;;;14.16;82.79;99506.71;107911;1290;22032;-65
2023/03/26 02:26:04;;;;;;;15.50;8.60;;;;;;;14.20;82.74;99508.50;107874;1290;23615;-60
2023/03/26 02:28:30;;;;;;;12.30;7.70;;;;;;;14.21;82.84;99510.92;107813;1290;22004;-65
2023/03/26 02:31:00;;;;;;;13.80;8.00;;;;;;;14.23;82.93;99517.37;107748;1290;22112;-60
2023/03/26 02:33:28;;;;;;;13.00;7.20;;;;;;;14.26;81.86;99520.23;107790;1290;22029;-59
2023/03/26 02:35:55;;;;;;;12.70;8.40;;;;;;;14.30;81.94;99516.03;107812;1290;21992;-60
2023/03/26 02:38:25;;;;;;;12.10;7.50;;;;;;;14.31;81.58;99513.68;107829;1291;23059;-65
2023/03/26 02:40:53;;;;;;;13.50;7.00;;;;;;;14.33;81.84;99516.77;106974;1291;1003143;-65
2023/03/26 02:43:19;;;;;;;10.50;6.40;;;;;;;14.34;81.88;99521.66;107746;1290;22784;-64
2023/03/26 02:45:45;;;;;;;11.80;7.40;;;;;;;14.36;81.70;99526.01;107779;1291;22005;-61
2023/03/26 02:48:13;;;;;;;10.80;6.50;;;;;;;14.38;80.84;99524.69;107826;1291;21999;-65
2023/03/26 02:50:40;;;;;;;11.30;6.50;;;;;;;14.40;80.70;99523.71;107783;1290;22072;-60
2023/03/26 02:53:05;;;;;;;10.90;6.60;;;;;;;14.39;81.51;99522.69;107817;1290;23061;-60
2023/03/26 02:55:33;;;;;;;10.20;6.10;;;;;;;14.35;82.26;99518.66;107774;1290;22002;-64
2023/03/26 02:57:59;;;;;;;12.20;5.90;;;;;;;14.34;81.59;99516.58;107805;1290;22000;-60
2023/03/26 03:00:25;;;;;;;8.00;5.20;;;;;;;14.37;81.25;99515.92;107750;1290;22451;-60
2023/03/26 03:02:52;;;;;;;9.60;5.40;;;;;;;14.41;81.07;99521.55;107806;1290;21985;-64
2023/03/26 03:05:18;;;;;;;9.60;5.30;;;;;;;14.45;80.86;99525.82;107802;1290;22026;-61
2023/03/26 03:07:45;;;;;;;8.70;5.20;;;;;;;14.49;80.46;99525.64;107815;1291;21990;-63
2023/03/26 03:10:15;;;;;;;9.30;5.80;;;;;;;14.50;80.18;99522.92;107897;1290;21996;-63
2023/03/26 03:12:41;;;;;;;8.60;5.20;;;;;;;14.48;81.01;99519.48;107813;1290;22515;-64
2023/03/26 03:15:08;;;;;;;9.50;5.40;;;;;;;14.52;80.31;99512.45;107745;1291;21989;-63
2023/03/26 03:17:34;;;;;;;11.50;6.90;;;;;;;14.53;81.14;99508.16;107858;1291;23396;-61
2023/03/26 03:20:00;;;;;;;10.10;5.50;;;;;;;14.53;80.46;99502.35;107693;1291;21986;-63
2023/03/26 03:22:32;;;;;;;10.20;6.20;;;;;;;14.53;80.45;99506.04;107750;1290;21998;-64
2023/03/26 03:24:58;;;;;;;11.70;6.70;;;;;;;14.55;80.29;99505.97;107959;1289;23719;-61
2023/03/26 03:27:25;;;;;;;10.60;6.60;;;;;;;14.56;80.29;99499.95;107943;1290;22169;-61
2023/03/26 03:29:54;;;;;;;12.20;7.20;;;;;;;14.60;79.64;99502.05;107875;1290;21995;-64
2023/03/26 03:32:23;;;;;;;12.30;7.90;;;;;;;14.61;79.33;99505.35;107689;1290;21995;-61
2023/03/26 03:34:49;;;;;;;11.60;8.10;;;;;;;14.65;78.99;99501.14;107738;1291;22000;-64
2023/03/26 03:37:16;;;;;;;13.20;8.10;;;;;;;14.65;78.95;99502.72;107685;1291;21995;-60
2023/03/26 03:39:42;;;;;;;14.90;9.10;;;;;;;14.67;78.91;99497.52;107759;1290;22193;-63
2023/03/26 03:42:08;;;;;;;14.00;8.20;;;;;;;14.68;78.73;99497.85;107809;1291;22000;-61
2023/03/26 03:44:36;;;;;;;15.10;9.30;;;;;;;14.67;78.77;99499.47;107724;1290;21995;-61
2023/03/26 03:47:01;;;;;;;14.80;8.80;;;;;;;14.63;79.15;99504.02;107712;1291;23719;-64
2023/03/26 03:49:27;;;;;;;15.90;9.50;;;;;;;14.62;78.96;99507.63;107737;1291;22646;-61
2023/03/26 03:51:53;;;;;;;13.30;8.80;;;;;;;14.62;78.52;99500.56;107698;1290;22000;-61
2023/03/26 03:54:19;;;;;;;14.00;8.20;;;;;;;14.63;78.42;99497.66;107712;1290;21985;-61
2023/03/26 03:56:54;;;;;;;14.90;9.00;;;;;;;14.64;78.57;99493.23;107712;1291;22001;-61
2023/03/26 03:59:20;;;;;;;14.00;8.70;;;;;;;14.63;78.76;99492.02;107696;1291;21993;-61
2023/03/26 04:01:47;;;;;;;14.70;8.80;;;;;;;14.63;78.95;99485.16;107702;1290;21986;-64
2023/03/26 04:04:13;;;;;;;16.50;8.80;;;;;;;14.63;78.44;99475.79;107680;1291;22253;-61
2023/03/26 04:06:42;;;;;;;15.70;9.10;;;;;;;14.64;79.07;99472.59;107673;1291;21988;-61
2023/03/26 04:09:09;;;;;;;14.60;8.90;;;;;;;14.64;78.71;99475.38;107689;1291;22025;-64
2023/03/26 04:11:38;;;;;;;14.30;8.80;;;;;;;14.66;78.40;99474.60;107711;1288;23635;-64
2023/03/26 04:14:04;;;;;;;12.70;8.60;;;;;;;14.67;78.25;99474.91;107705;1290;21993;-61
2023/03/26 04:16:30;;;;;;;13.90;8.60;;;;;;;14.68;78.37;99472.42;107683;1290;21999;-61
2023/03/26 04:18:57;;;;;;;14.40;9.20;;;;;;;14.68;78.34;99473.99;107689;1290;22055;-65
2023/03/26 04:21:23;;;;;;;15.90;8.30;;;;;;;14.70;78.14;99478.36;107732;1291;23449;-61
2023/03/26 04:23:49;;;;;;;14.60;9.10;;;;;;;14.72;77.94;99485.67;107920;1290;22001;-61
2023/03/26 04:26:19;;;;;;;13.70;8.30;;;;;;;14.74;78.01;99491.27;107868;1290;22001;-61
2023/03/26 04:28:47;;;;;;;16.40;8.80;;;;;;;14.74;78.41;99491.59;107969;1290;21994;-65
2023/03/26 04:31:15;;;;;;;15.60;9.70;;;;;;;14.74;78.38;99491.24;107921;1290;22172;-65
2023/03/26 04:33:45;;;;;;;17.10;10.30;;;;;;;14.74;77.71;99490.54;108028;1290;22005;-60
2023/03/26 04:36:12;;;;;;;16.80;9.90;;;;;;;14.75;77.82;99491.59;107004;1291;1003545;-60
2023/03/26 04:38:47;;;;;;;17.50;11.40;;;;;;;14.72;78.71;99491.33;107836;1287;21992;-59
2023/03/26 04:41:13;;;;;;;16.90;10.70;;;;;;;14.71;78.84;99495.98;107738;1290;22229;-63
2023/03/26 04:43:46;;;;;;;16.50;10.60;;;;;;;14.74;77.90;99496.21;107764;1290;22027;-60
2023/03/26 04:46:13;;;;;;;17.80;10.20;;;;;;;14.77;77.96;99493.61;107731;1290;22000;-60
2023/03/26 04:48:39;;;;;;;16.00;10.60;;;;;;;14.80;77.78;99494.88;107739;1291;21992;-62
2023/03/26 04:51:08;;;;;;;16.50;10.20;;;;;;;14.83;77.36;99495.44;107718;1290;21992;-62
2023/03/26 04:53:34;;;;;;;18.20;11.10;;;;;;;14.87;77.47;99501.65;107876;1290;21991;-63
2023/03/26 04:56:12;;;;;;;16.50;11.00;;;;;;;14.90;77.18;99502.05;107909;1290;22000;-62
2023/03/26 04:58:38;;;;;;;18.90;12.60;;;;;;;14.90;76.81;99508.40;107809;1290;21996;-63
2023/03/26 05:01:07;;;;;;;17.60;11.40;;;;;;;14.88;77.14;99512.70;107816;1290;23664;-61
2023/03/26 05:03:33;;;;;;;20.50;12.40;;;;;;;14.87;77.08;99513.65;107939;1290;21989;-61
2023/03/26 05:05:59;;;;;;;19.50;12.00;;;;;;;14.87;77.51;99515.59;107937;1290;23697;-65
2023/03/26 05:08:27;;;;;;;18.20;12.00;;;;;;;14.86;77.09;99513.16;107768;1290;22169;-60
2023/03/26 05:10:54;;;;;;;18.20;12.00;;;;;;;14.86;76.77;99512.27;107753;1290;22001;-64
2023/03/26 05:13:22;;;;;;;19.40;11.80;;;;;;;14.88;76.82;99512.90;106979;1286;1002513;-60
2023/03/26 05:15:49;;;;;;;20.00;12.80;;;;;;;14.87;77.02;99513.80;107739;1287;21987;-63
2023/03/26 05:18:15;;;;;;;18.10;12.00;;;;;;;14.94;76.16;99514.39;107824;1288;21986;-61
2023/03/26 05:20:42;;;;;;;16.90;11.90;;;;;;;14.97;76.27;99514.64;107747;1290;21977;-62
2023/03/26 05:23:12;;;;;;;18.10;11.60;;;;;;;14.98;76.54;99514.91;107834;1290;21997;-61
2023/03/26 05:25:40;;;;;;;19.20;12.90;;;;;;;14.99;76.64;99516.45;107713;1291;22005;-64
2023/03/26 05:28:05;;;;;;;19.50;13.00;;;;;;;14.93;77.26;99518.33;107710;1290;22006;-61
2023/03/26 05:30:31;;;;;;;18.40;12.20;;;;;;;14.89;77.77;99516.38;107729;1290;21999;-61
2023/03/26 05:33:04;;;;;;;19.60;12.90;;;;;;;14.88;77.65;99515.18;107783;1291;22010;-61
2023/03/26 05:35:30;;;;;;;19.10;12.50;;;;;;;14.89;77.72;99509.30;107740;1290;22000;-61
2023/03/26 05:37:55;;;;;;;19.70;13.00;;;;;;;14.92;77.61;99508.29;107790;1289;21991;-64
2023/03/26 05:40:21;;;;;;;20.70;13.30;;;;;;;14.98;77.62;99507.34;107702;1290;22033;-63
2023/03/26 05:42:50;;;;;;;19.30;13.40;;;;;;;15.05;78.05;99503.86;107727;1289;24096;-63
2023/03/26 05:45:17;;;;;;;18.70;13.00;;;;;;;15.07;77.83;99497.02;107869;1290;21990;-61
2023/03/26 05:47:42;;;;;;;20.20;12.20;;;;;;;15.09;77.49;99495.86;107834;1290;21993;-61
2023/03/26 05:50:09;;;;;;;19.50;13.10;;;;;;;15.13;77.42;99497.13;107895;1289;21994;-63
2023/03/26 05:52:35;;;;;;;21.50;13.00;;;;;;;15.16;77.47;99501.59;107797;1289;22000;-61
2023/03/26 05:55:04;;;;;;;19.60;13.30;;;;;;;15.20;77.27;99504.59;107794;1290;22003;-61
2023/03/26 05:57:30;;;;;;;19.30;12.60;;;;;;;15.24;77.27;99508.98;107751;1290;21993;-63
2023/03/26 05:59:55;;;;;;;18.60;13.00;;;;;;;15.26;77.02;99512.25;107722;1290;22035;-63
2023/03/26 06:02:22;;;;;;;22.40;13.80;;;;;;;15.27;76.87;99513.30;107769;1290;22030;-61
2023/03/26 06:04:49;;;;;;;24.10;15.30;;;;;;;15.25;76.96;99511.60;107923;1290;21997;-62
2023/03/26 06:07:16;;;;;;;23.10;14.70;;;;;;;15.26;76.89;99506.26;107955;1290;22014;-61
2023/03/26 06:09:43;;;;;;;24.60;15.10;;;;;;;15.29;76.77;99499.77;107871;1290;22544;-63
2023/03/26 06:12:09;;;;;;;26.20;14.70;;;;;;;15.36;77.03;99501.90;107776;1290;21992;-64
2023/03/26 06:14:37;;;;;;;20.50;12.60;;;;;;;15.44;77.02;99500.33;107814;1290;21992;-64
2023/03/26 06:17:03;;;;;;;25.40;15.60;;;;;;;15.48;76.93;99502.09;107786;1290;23060;-64
2023/03/26 06:19:31;;;;;;;23.00;14.70;;;;;;;15.46;76.47;99499.35;107686;1290;21999;-64
2023/03/26 06:21:58;;;;;;;22.30;13.50;;;;;;;15.48;76.54;99498.55;107868;1289;21989;-62
2023/03/26 06:24:24;;;;;;;25.30;15.40;;;;;;;15.49;76.73;99496.90;107864;1290;21997;-62
2023/03/26 06:26:51;;;;;;;24.40;14.50;;;;;;;15.46;76.72;99493.13;107707;1290;21989;-64
2023/03/26 06:29:17;;;;;;;25.90;14.60;;;;;;;15.45;76.57;99493.17;107693;1286;21993;-64
2023/03/26 06:31:44;;;;;;;23.40;14.10;;;;;;;15.51;77.19;99493.61;107762;1290;21981;-62
2023/03/26 06:34:10;;;;;;;22.70;13.40;;;;;;;15.59;77.44;99495.19;107858;1290;22204;-63
2023/03/26 06:36:36;;;;;;;23.50;13.70;;;;;;;15.70;77.90;99496.60;107917;1290;21995;-63
2023/03/26 06:39:02;;;;;;;23.90;13.60;;;;;;;15.77;77.44;99499.45;107864;1290;21999;-62
2023/03/26 06:41:28;;;;;;;24.40;15.00;;;;;;;15.84;77.08;99496.49;107789;1290;21994;-61
2023/03/26 06:43:54;;;;;;;24.70;14.60;;;;;;;15.87;76.65;99496.92;107860;1290;22235;-62
2023/03/26 06:46:24;;;;;;;26.60;15.30;;;;;;;15.92;76.90;99499.15;108085;1286;21995;-61
2023/03/26 06:48:50;;;;;;;28.20;15.30;;;;;;;15.98;77.09;99495.31;107937;1290;22033;-62
2023/03/26 06:51:16;;;;;;;22.50;13.60;;;;;;;15.98;76.44;99491.25;107956;1290;22454;-63
2023/03/26 06:53:42;;;;;;;22.40;14.70;;;;;;;16.01;76.85;99493.94;107807;1290;21998;-62
2023/03/26 06:56:09;;;;;;;22.70;13.90;;;;;;;16.07;77.11;99503.02;107743;1290;21998;-64
2023/03/26 06:58:36;;;;;;;22.60;14.30;;;;;;;16.13;76.90;99506.98;107852;1290;22465;-63
2023/03/26 07:01:02;;;;;;;22.70;14.00;;;;;;;16.17;76.63;99507.66;107736;1287;21987;-63
2023/03/26 07:03:28;;;;;;;23.60;15.10;;;;;;;16.15;76.58;99508.63;107748;1288;21984;-62
2023/03/26 07:05:58;;;;;;;23.40;15.30;;;;;;;16.14;77.14;99507.29;107756;1290;24330;-62
2023/03/26 07:08:26;;;;;;;23.70;14.40;;;;;;;16.23;77.02;99505.26;107738;1291;22064;-62
2023/03/26 07:10:52;;;;;;;22.00;13.30;;;;;;;16.28;76.95;99505.16;107712;1290;21991;-62
2023/03/26 07:13:20;;;;;;;22.60;13.50;;;;;;;16.36;76.69;99511.13;107754;1290;24398;-62
2023/03/26 07:15:47;;;;;;;20.70;13.90;;;;;;;16.45;75.63;99514.81;107757;1290;21990;-62
2023/03/26 07:18:13;;;;;;;20.00;11.90;;;;;;;16.49;75.69;99513.52;107830;1289;23735;-61
2023/03/26 07:20:44;;;;;;;21.60;13.20;;;;;;;16.58;75.83;99515.02;108020;1290;23615;-62
2023/03/26 07:23:10;;;;;;;17.10;12.40;;;;;;;16.65;75.76;99513.07;108007;1290;21998;-63
2023/03/26 07:25:36;;;;;;;21.90;14.20;;;;;;;16.68;75.39;99516.29;107912;1287;22010;-63
2023/03/26 07:28:21;;;;;;;19.90;13.10;;;;;;;16.73;75.48;99514.09;107943;1290;21999;-62
2023/03/26 07:30:58;;;;;;;21.10;12.80;;;;;;;16.78;75.45;99514.70;107996;1290;22010;-62
2023/03/26 07:33:34;;;;;;;20.20;13.40;;;;;;;16.83;75.46;99515.17;107994;1290;22002;-62
2023/03/26 07:36:04;;;;;;;18.80;12.00;;;;;;;16.85;75.92;99518.79;108008;1290;22031;-62
2023/03/26 07:38:52;;;;;;;24.60;15.50;;;;;;;16.72;77.33;99517.70;107963;1286;23615;-63
2023/03/26 07:41:24;;;;;;;19.40;14.00;;;;;;;16.83;77.74;99520.63;107824;1290;21983;-63
2023/03/26 07:43:59;;;;;;;23.60;14.30;;;;;;;17.04;76.38;99519.73;107768;1290;21999;-63
2023/03/26 07:46:35;;;;;;;19.40;13.60;;;;;;;17.12;75.70;99518.46;107747;1290;21995;-62
2023/03/26 07:49:03;;;;;;;20.10;12.80;;;;;;;17.11;75.31;99518.33;107791;1290;22004;-62
2023/03/26 07:51:30;;;;;;;20.20;12.80;;;;;;;17.13;75.40;99517.37;107900;1289;22000;-64
2023/03/26 07:54:02;;;;;;;20.80;13.20;;;;;;;17.13;75.47;99511.86;107782;1290;22032;-65
2023/03/26 07:56:53;;;;;;;18.80;13.10;;;;;;;17.08;75.60;99514.58;107749;1290;23728;-61
2023/03/26 07:59:27;;;;;;;20.70;14.50;;;;;;;17.07;75.39;99510.37;107714;1290;22010;-61
2023/03/26 08:02:03;;;;;;;21.00;14.30;;;;;;;17.06;75.63;99505.46;107870;1290;23622;-62
2023/03/26 08:04:41;;;;;;;21.50;14.90;;;;;;;17.04;75.73;99509.65;107858;1290;22008;-62
2023/03/26 08:07:13;;;;;;;21.10;13.70;;;;;;;17.04;76.18;99509.13;107727;1290;21999;-61
2023/03/26 08:09:52;;;;;;;25.40;13.60;;;;;;;17.04;75.93;99508.59;107685;1290;22001;-62
2023/03/26 08:12:41;;;;;;;17.00;12.00;;;;;;;17.00;76.37;99505.30;107722;1291;22010;-63
2023/03/26 08:15:31;;;;;;;18.00;12.70;;;;;;;17.07;76.13;99504.20;107728;1291;24380;-62
2023/03/26 08:17:57;;;;;;;19.50;14.00;;;;;;;17.13;76.89;99509.89;107810;1290;21994;-63
2023/03/26 08:20:43;;;;;;;20.40;15.10;;;;;;;17.14;76.68;99508.96;107678;1290;21991;-61
2023/03/26 08:23:22;;;;;;;18.20;14.10;;;;;;;17.15;76.51;99508.94;107868;1290;21990;-63
2023/03/26 08:25:48;;;;;;;20.30;15.10;;;;;;;17.12;76.56;99509.77;107871;1290;21990;-61
2023/03/26 08:28:26;;;;;;;21.60;14.70;;;;;;;17.11;77.11;99503.11;107667;1290;23348;-63
2023/03/26 08:30:55;;;;;;;21.70;15.00;;;;;;;17.11;77.09;99505.42;107845;1290;21995;-62
2023/03/26 08:33:21;;;;;;;20.70;14.60;;;;;;;17.11;77.96;99505.02;107857;1290;21997;-63
2023/03/26 08:35:48;;;;;;;22.70;14.90;;;;;;;17.16;77.91;99511.16;107772;1290;21995;-65
2023/03/26 08:38:16;;;;;;;20.90;15.20;;;;;;;17.21;77.95;99513.20;107871;1290;21990;-61
2023/03/26 08:41:04;;;;;;;23.50;15.60;;;;;;;17.26;77.92;99512.77;107840;1290;21994;-64
2023/03/26 08:43:40;;;;;;;17.70;13.60;;;;;;;17.35;77.66;99513.34;107842;1290;22587;-66
2023/03/26 08:46:24;;;;;;;20.90;13.70;;;;;;;17.44;77.92;99512.69;107813;1290;22008;-62
2023/03/26 08:49:15;;;;;;;20.90;14.20;;;;;;;17.55;78.37;99508.01;107769;1290;22008;-63
2023/03/26 08:51:50;;;;;;;19.70;12.80;;;;;;;17.68;78.17;99510.47;107651;1290;23722;-62
2023/03/26 08:54:25;;;;;;;18.60;14.10;;;;;;;17.79;77.95;99514.30;107736;1290;21990;-65
2023/03/26 08:56:55;;;;;;;19.40;14.00;;;;;;;17.88;77.78;99514.85;107810;1290;21992;-62
2023/03/26 08:59:40;;;;;;;18.70;13.50;;;;;;;17.96;77.05;99514.77;107890;1290;21996;-63
2023/03/26 09:02:15;;;;;;;18.30;13.20;;;;;;;18.00;76.38;99517.42;107806;1290;21989;-65
2023/03/26 09:04:53;;;;;;;21.30;14.00;;;;;;;17.96;75.87;99517.27;107914;1286;22007;-62
2023/03/26 09:07:37;;;;;;;18.80;13.50;;;;;;;17.90;75.65;99513.67;107789;1289;21990;-65
2023/03/26 09:10:03;;;;;;;20.20;13.10;;;;;;;17.86;75.93;99511.26;107807;1289;21988;-62
2023/03/26 09:12:50;;;;;;;21.70;14.00;;;;;;;17.85;76.06;99504.55;107826;1289;23716;-62
2023/03/26 09:15:26;;;;;;;20.10;14.20;;;;;;;17.89;76.28;99497.59;107911;1289;23476;-66
2023/03/26 09:18:01;;;;;;;40.50;25.00;;;;;;;18.01;76.94;99492.33;107130;1286;1002515;-66
2023/03/26 09:21:05;;;;;;;30.50;22.20;;;;;;;18.18;77.83;99490.63;107819;1289;21990;-63
2023/03/26 09:23:52;;;;;;;22.70;14.30;;;;;;;18.39;77.66;99494.23;107852;1290;22001;-66
2023/03/26 09:26:29;;;;;;;19.40;13.70;;;;;;;18.53;77.27;99498.35;107714;1290;22207;-67
2023/03/26 09:29:19;;;;;;;17.30;14.00;;;;;;;18.65;77.35;99494.11;107759;1289;22001;-66
2023/03/26 09:32:14;;;;;;;18.70;13.70;;;;;;;18.74;76.96;99492.54;107820;1290;21996;-67
2023/03/26 09:35:14;;;;;;;17.80;12.40;;;;;;;18.86;77.40;99488.08;106951;1290;1003423;-63
2023/03/26 09:37:49;;;;;;;16.40;13.20;;;;;;;19.01;77.59;99482.02;107763;1290;21989;-66
2023/03/26 09:40:21;;;;;;;17.90;13.40;;;;;;;19.14;77.37;99483.71;107721;1290;22007;-67
2023/03/26 09:42:56;;;;;;;18.80;14.90;;;;;;;19.27;76.78;99486.48;107887;1290;22287;-67
2023/03/26 09:45:40;;;;;;;16.00;12.50;;;;;;;19.38;76.58;99481.72;107763;1290;22000;-67
2023/03/26 09:48:33;;;;;;;19.90;14.10;;;;;;;19.52;76.89;99475.14;107727;1288;22004;-68
2023/03/26 09:51:23;;;;;;;16.50;12.00;;;;;;;19.61;75.89;99472.61;107712;1290;22000;-69
2023/03/26 09:53:49;;;;;;;16.80;12.00;;;;;;;19.69;75.77;99476.90;107955;1290;22001;-68
2023/03/26 09:56:43;;;;;;;14.90;12.00;;;;;;;19.83;77.20;99472.61;107844;1290;22088;-69
2023/03/26 09:59:28;;;;;;;19.30;13.10;;;;;;;19.99;76.87;99465.87;107698;1290;23727;-63
2023/03/26 10:02:12;;;;;;;17.30;13.00;;;;;;;20.06;75.71;99465.06;107686;1290;22941;-64
2023/03/26 10:05:03;;;;;;;14.80;11.30;;;;;;;20.09;75.17;99471.14;107702;1290;22004;-64
2023/03/26 10:07:37;;;;;;;13.90;11.20;;;;;;;20.10;74.54;99472.12;107784;1286;21990;-63
2023/03/26 10:10:31;;;;;;;14.00;9.90;;;;;;;20.15;74.62;99470.73;107684;1290;22033;-68
2023/03/26 10:13:02;;;;;;;12.30;9.20;;;;;;;20.15;72.82;99465.73;107681;1290;22005;-64
2023/03/26 10:16:05;;;;;;;14.10;10.80;;;;;;;20.11;72.60;99470.84;107810;1290;23712;-64
2023/03/26 10:18:33;;;;;;;13.00;10.20;;;;;;;20.19;74.53;99474.36;107168;1299;22006;-68
2023/03/26 10:21:17;;;;;;;14.70;9.70;;;;;;;20.31;74.24;99475.71;107630;1291;23046;-69
2023/03/26 10:24:08;;;;;;;13.80;10.60;;;;;;;20.43;74.86;99475.60;107855;1282;21998;-63
2023/03/26 10:26:43;;;;;;;19.80;13.70;;;;;;;20.65;75.89;99467.77;107626;1290;22032;-63
2023/03/26 10:29:27;;;;;;;14.50;11.40;;;;;;;20.82;74.83;99458.04;107686;1290;22027;-69
2023/03/26 10:31:59;;;;;;;18.10;13.30;;;;;;;21.03;75.78;99454.27;107722;1284;23332;-69
2023/03/26 10:34:29;;;;;;;14.80;12.20;;;;;;;21.29;76.47;99445.07;107838;1290;22006;-63
2023/03/26 10:36:58;;;;;;;14.20;10.10;;;;;;;21.60;77.75;99431.48;107818;1290;21986;-63
2023/03/26 10:39:30;;;;;;;11.60;9.10;;;;;;;21.98;78.33;99425.10;107916;1290;21991;-69
2023/03/26 10:42:05;;;;;;;13.50;10.50;;;;;;;22.39;78.38;99420.62;107861;1290;22006;-64
2023/03/26 10:44:44;;;;;;;10.80;9.60;;;;;;;22.81;78.33;99420.56;107847;1290;22279;-63
2023/03/26 10:47:28;;;;;;;10.90;9.20;;;;;;;23.22;78.21;99416.31;107748;1289;21966;-63
2023/03/26 10:50:32;;;;;;;10.90;9.00;;;;;;;23.62;75.80;99412.19;107833;1290;22002;-68
2023/03/26 10:53:13;;;;;;;10.70;7.60;;;;;;;24.05;74.42;99410.45;107144;1299;22019;-70
2023/03/26 10:55:40;;;;;;;11.00;8.40;;;;;;;24.33;72.95;99413.13;107097;1298;22896;-69
2023/03/26 10:58:25;;;;;;;10.00;8.70;;;;;;;24.60;73.87;99411.59;107446;1290;21996;-69
2023/03/26 11:00:59;;;;;;;8.40;7.50;;;;;;;24.81;70.62;99409.63;107791;1290;22167;-63
2023/03/26 11:03:53;;;;;;;7.70;6.80;;;;;;;24.81;67.68;99403.34;107781;1290;21998;-63
2023/03/26 11:06:48;;;;;;;9.30;7.70;;;;;;;24.66;67.24;99400.08;107950;1286;21984;-63
2023/03/26 11:09:22;;;;;;;8.20;7.30;;;;;;;24.51;66.53;99399.62;107742;1290;22024;-69
2023/03/26 11:12:09;;;;;;;8.50;6.90;;;;;;;24.34;62.71;99401.79;107739;1290;21995;-63
2023/03/26 11:14:55;;;;;;;8.50;7.10;;;;;;;23.96;61.91;99405.30;107847;1290;22084;-63
2023/03/26 11:17:24;;;;;;;19.50;14.70;;;;;;;23.69;63.37;99410.76;107883;1290;21994;-70
2023/03/26 11:19:53;;;;;;;11.50;10.20;;;;;;;23.45;62.82;99414.48;107944;1289;21998;-66
2023/03/26 11:22:18;;;;;;;8.10;6.40;;;;;;;23.12;60.47;99419.94;107906;1290;22958;-63
2023/03/26 11:25:23;;;;;;;8.60;5.90;;;;;;;22.60;59.72;99426.72;107797;1290;22010;-66
2023/03/26 11:28:29;;;;;;;6.80;4.80;;;;;;;21.90;61.18;99427.81;107657;1290;22249;-65
2023/03/26 11:31:15;;;;;;;5.40;3.50;;;;;;;21.20;61.74;99430.77;107776;1290;21999;-67
2023/03/26 11:33:43;;;;;;;5.80;3.50;;;;;;;20.61;62.31;99436.10;107753;1290;22011;-69
2023/03/26 11:36:18;;;;;;;7.90;5.30;;;;;;;20.19;63.71;99445.54;107858;1290;22936;-61